Rewey, WI (53580)

09:03 AM CDT die 21o August, anno 2014 (GMT -0500)
Iowa County | Change Station
CLOSE
Current Station
Airport
Location: Mineral Point,
Elevation: 1168 ft
Nearby Weather Stations

Elev 1168 ft 42.89 °N, 90.23 °W | Updated 8 minutes ago

Mostly Cloudy
Plerumque Nubila
70 °F
Feels Like 70 °F
N
10
Ventus Variabilis Ventus from Inter Austrum et Eurum

Hodie
High -- | Low -- °F
--% Chance of Precip.
Yesterday
High -- | Low -- °F
Precip. -- in
6:14 AM 7:54 PM
Waning Crescent, 14% visible
Pressio 29.92 in
Visibilitas 10.0 milia passuum
Clouds Plerumque Nubila 4900 ft
Frigus in quo Ros apparet 68 °F
Umor 94%
Rainfall 0.34 in
Snow Depth Not available.
UV 2 out of 12
Pollen 8.10 out of 12
Air Quality Not available.
Flu Activity Not available.
METAR KMRJ 211355Z AUTO 14009KT 10SM BKN049 21/20 A2992 RMK AO2 P0004

More Conditions Fewer Conditions

Pressio 29.92 in
Visibilitas 10.0 milia passuum
Clouds Plerumque Nubila 4900 ft
Frigus in quo Ros apparet 68 °F
Umor 94%
Rainfall 0.34 in
Snow Depth Not available.
UV 2 out of 12
Pollen 8.10 out of 12
Air Quality Not available.
Flu Activity Not available.
METAR KMRJ 211355Z AUTO 14009KT 10SM BKN049 21/20 A2992 RMK AO2 P0004

More Conditions Fewer Conditions

10-Day Weather Forecast

Almanac

Astronomy

Aug. 21, 2014 Rise Set
Actual Time 6:14 AM CDT 7:54 PM CDT
Civil Twilight 5:44 AM CDT 8:24 PM CDT
Nautical Twilight 5:07 AM CDT 9:00 PM CDT
Astronomical Twilight 4:28 AM CDT 9:39 PM CDT
Moon 2:42 AM CDT 5:25 PM CDT
Length Of Visible Light 14h 39m
Length of Day
13h 39m
Tomorrow will be 2m 40s shorter.
Waning Crescent, 14% of the Moon is Illuminated
Hodie
Waning Crescent
Aug 25
New
Sep 2
First Quarter
Sep 8
Full
Sep 15
Last Quarter

Today's Extremes

State Highs State Lows

Community

WunderPhotos

Upload Photos

1,745,925 photos uploaded!

WunderBlogs® & News

Nearby

Snow Depth

Station Depth Elevation
No new snow has been reported.

Earthquake Activity

City Distance Mag. Time & Date
No recent earthquake activity has been reported nearby.
Minimum magnitude displayed is 2.5.

Coastal Water Temperatures

Locus Calor
No Stations Reporting

Nearby Weather Stations